Terminal Aerodrome Forecast
Issued by NWS

Home | Current Version | Previous Version | Text Only | Print | Product List | Glossary On
Versions: 1 2 3 4 5 6 7 8 9 10 11 12 13 14 15
000
FTUS45 KTFX 220706 AAA
TAFLWT
TAF AMD
KLWT 220706Z 2207/2306 VRB05KT P6SM -RA OVC030
     FM220900 07010KT P6SM -RA OVC010
      TEMPO 2209/2213 2SM -RASN SCT005
     FM221400 07007KT 4SM -RASN SCT003 OVC008
     FM230000 05006KT P6SM OVC010 PROB30 2300/2306 2SM -RASN SCT005=

USA.gov is the U.S. government's official web portal to all federal, state and local government web resources and services.